Time;durP1;ratioP1;P1;durP2;ratioP2;P2;SDS_P1;SDS_P2;PMS_P1;PMS_P2;Temp;Humidity;BMP_temperature;BMP_pressure;BME280_temperature;BME280_humidity;BME280_pressure;Samples;Min_cycle;Max_cycle;Signal;HPM_P1;HPM_P2
2023/04/26 00:00:52;;;;;;;22.15;5.85;;;;;;;8.04;47.45;99958.78;4915186;28;20075;-58
2023/04/26 00:03:23;;;;;;;28.05;9.60;;;;;;;8.00;47.87;99958.81;4913898;28;20071;-58
2023/04/26 00:05:54;;;;;;;23.13;5.32;;;;;;;7.98;47.46;99949.31;4911716;28;20053;-56
2023/04/26 00:08:25;;;;;;;18.25;5.70;;;;;;;7.95;46.74;99949.34;4896764;28;20071;-58
2023/04/26 00:10:55;;;;;;;14.98;4.93;;;;;;;7.94;46.11;99947.66;4894914;28;20049;-59
2023/04/26 00:13:27;;;;;;;30.75;8.10;;;;;;;7.89;47.02;99923.44;4894846;28;20052;-58
2023/04/26 00:15:58;;;;;;;21.10;4.95;;;;;;;7.93;46.57;99940.69;4912964;28;21211;-57
2023/04/26 00:18:28;;;;;;;24.73;8.18;;;;;;;7.97;47.38;99932.00;4920923;28;20056;-58
2023/04/26 00:20:59;;;;;;;24.02;6.90;;;;;;;7.95;47.30;99938.94;4918686;28;20043;-59
2023/04/26 00:23:29;;;;;;;32.42;7.50;;;;;;;7.96;47.45;99930.25;4917955;28;20357;-58
2023/04/26 00:26:00;;;;;;;21.58;5.85;;;;;;;7.99;47.10;99935.44;4931807;28;20040;-58
2023/04/26 00:28:32;;;;;;;26.20;5.85;;;;;;;7.94;47.00;99911.22;4931526;28;20493;-58
2023/04/26 00:31:02;;;;;;;24.50;7.00;;;;;;;8.05;46.95;99932.75;4931970;28;20489;-59
2023/04/26 00:33:33;;;;;;;17.40;5.70;;;;;;;8.02;46.69;99925.00;4931959;28;20059;-59
2023/04/26 00:36:03;;;;;;;18.88;5.53;;;;;;;7.96;46.73;99922.44;4931369;28;20058;-59
2023/04/26 00:38:33;;;;;;;26.60;7.05;;;;;;;7.96;47.04;99930.25;4932113;28;20136;-58
2023/04/26 00:41:05;;;;;;;22.90;5.45;;;;;;;7.94;46.91;99937.25;4931226;28;20082;-58
2023/04/26 00:43:37;;;;;;;19.65;5.65;;;;;;;7.90;46.74;99927.72;4931133;28;20040;-58
2023/04/26 00:46:09;;;;;;;14.40;5.03;;;;;;;7.86;47.57;99931.22;4924944;28;20139;-60
2023/04/26 00:48:39;;;;;;;20.27;5.10;;;;;;;7.82;48.03;99933.03;4920731;28;20148;-58
2023/04/26 00:51:10;;;;;;;26.05;6.25;;;;;;;7.84;48.86;99932.97;4917678;28;20048;-58
2023/04/26 00:53:41;;;;;;;29.13;6.93;;;;;;;7.83;48.89;99926.06;4935961;28;20048;-58
2023/04/26 00:56:12;;;;;;;24.20;6.25;;;;;;;7.81;49.15;99925.22;4935467;28;20097;-58
2023/04/26 00:58:45;;;;;;;20.95;5.78;;;;;;;7.82;49.52;99916.56;4935317;28;20075;-59
2023/04/26 01:01:15;;;;;;;25.50;6.97;;;;;;;7.71;49.51;99920.13;4927192;28;20690;-57
2023/04/26 01:03:46;;;;;;;24.77;6.32;;;;;;;7.61;49.44;99923.69;4912126;28;20498;-59
2023/04/26 01:06:17;;;;;;;28.15;6.60;;;;;;;7.58;49.55;99918.50;4912093;28;20212;-59
2023/04/26 01:08:48;;;;;;;24.17;6.15;;;;;;;7.48;50.37;99919.47;4911354;28;20503;-58
2023/04/26 01:11:21;;;;;;;23.70;7.13;;;;;;;7.45;50.55;99916.91;4908018;28;20057;-58
2023/04/26 01:13:53;;;;;;;26.85;6.43;;;;;;;7.41;51.24;99904.81;4928591;28;20067;-57
2023/04/26 01:16:24;;;;;;;25.02;6.80;;;;;;;7.52;52.90;99924.63;4930975;28;20059;-56
2023/04/26 01:18:55;;;;;;;23.15;6.35;;;;;;;7.34;54.31;99894.47;4930893;28;20453;-56
2023/04/26 01:21:26;;;;;;;22.30;6.95;;;;;;;7.29;55.03;99908.41;4930553;28;20054;-57
2023/04/26 01:23:58;;;;;;;19.33;6.85;;;;;;;7.20;56.93;99909.31;4930731;28;20051;-57
2023/04/26 01:26:28;;;;;;;19.02;6.60;;;;;;;7.16;58.01;99905.03;4927909;28;20049;-57
2023/04/26 01:28:59;;;;;;;19.50;6.38;;;;;;;7.16;58.84;99902.41;4936623;28;20737;-57
2023/04/26 01:31:29;;;;;;;24.30;6.95;;;;;;;7.15;59.88;99903.31;4933768;28;20090;-58
2023/04/26 01:34:00;;;;;;;20.05;6.47;;;;;;;7.10;60.58;99905.09;4931228;28;20044;-58
2023/04/26 01:36:31;;;;;;;22.02;6.78;;;;;;;6.94;60.76;99887.88;4930518;28;20044;-57
2023/04/26 01:39:04;;;;;;;20.55;6.95;;;;;;;6.97;61.32;99898.28;4930705;28;20510;-57
2023/04/26 01:41:34;;;;;;;24.33;7.43;;;;;;;7.03;62.64;99898.22;4930424;28;20048;-58
2023/04/26 01:44:05;;;;;;;26.65;7.32;;;;;;;6.96;63.23;99896.53;4933237;28;20055;-58
2023/04/26 01:46:35;;;;;;;22.60;8.02;;;;;;;6.86;63.50;99894.03;4921108;28;20052;-58
2023/04/26 01:49:06;;;;;;;17.35;7.55;;;;;;;6.73;65.28;99910.53;4924590;28;20058;-58
2023/04/26 01:51:37;;;;;;;23.05;7.68;;;;;;;6.64;66.17;99902.78;4934026;28;20067;-58
2023/04/26 01:54:09;;;;;;;25.55;7.85;;;;;;;6.61;67.59;99900.22;4933952;28;20060;-58
2023/04/26 01:56:40;;;;;;;21.20;7.95;;;;;;;6.61;68.62;99892.44;4926730;28;20056;-57
2023/04/26 01:59:10;;;;;;;32.17;9.88;;;;;;;6.55;69.26;99887.28;4920101;28;20062;-57
2023/04/26 02:01:43;;;;;;;28.02;10.20;;;;;;;6.30;69.83;99853.69;4924519;28;20123;-57
2023/04/26 02:04:13;;;;;;;32.90;9.80;;;;;;;6.42;70.58;99882.16;4932585;28;20058;-57
2023/04/26 02:06:44;;;;;;;21.98;8.13;;;;;;;6.34;71.47;99880.47;4934431;28;20047;-57
2023/04/26 02:09:17;;;;;;;24.58;9.02;;;;;;;6.33;73.05;99873.56;4931030;28;20105;-58
2023/04/26 02:11:47;;;;;;;20.65;8.35;;;;;;;6.40;74.03;99864.88;4923666;28;20048;-58
2023/04/26 02:14:17;;;;;;;23.52;8.60;;;;;;;6.42;74.70;99871.78;4920142;28;20105;-58
2023/04/26 02:16:48;;;;;;;23.25;9.25;;;;;;;6.47;75.05;99862.25;4928767;28;20759;-58
2023/04/26 02:19:19;;;;;;;23.98;9.15;;;;;;;6.57;75.22;99857.00;4936782;28;20419;-57
2023/04/26 02:21:54;;;;;;;22.38;9.65;;;;;;;6.40;75.26;99819.03;4932288;28;20053;-59
2023/04/26 02:24:27;;;;;;;20.75;8.63;;;;;;;6.38;76.82;99789.63;4929356;28;20490;-56
2023/04/26 02:27:02;;;;;;;28.35;10.20;;;;;;;6.89;76.77;99848.97;4924898;28;20222;-58
2023/04/26 02:29:32;;;;;;;29.48;8.95;;;;;;;6.50;77.00;99751.50;4930160;28;20180;-59
2023/04/26 02:32:12;;;;;;;26.85;9.60;;;;;;;7.03;76.71;99835.88;4918899;28;20421;-59
2023/04/26 02:34:44;;;;;;;25.33;9.18;;;;;;;6.97;76.69;99830.72;4916955;28;20059;-59
2023/04/26 02:37:14;;;;;;;20.45;9.07;;;;;;;7.04;77.63;99832.38;4919407;28;20460;-59
2023/04/26 02:39:50;;;;;;;25.30;8.95;;;;;;;7.16;76.92;99819.28;4917370;28;20052;-58
2023/04/26 02:42:20;;;;;;;24.73;9.63;;;;;;;7.37;78.36;99809.56;4908718;28;20067;-58
2023/04/26 02:44:51;;;;;;;22.95;8.43;;;;;;;7.60;78.68;99812.75;4918174;28;20102;-58
2023/04/26 02:47:21;;;;;;;24.50;10.05;;;;;;;7.62;78.27;99803.22;4915706;28;20052;-58
2023/04/26 02:49:52;;;;;;;25.05;9.10;;;;;;;7.63;77.83;99791.91;4914840;28;20048;-59
2023/04/26 02:52:22;;;;;;;26.98;10.82;;;;;;;7.59;77.91;99784.16;4919589;28;20490;-59
2023/04/26 02:54:55;;;;;;;21.90;9.48;;;;;;;7.69;78.06;99789.25;4916972;28;20082;-58
2023/04/26 02:57:25;;;;;;;26.02;10.38;;;;;;;7.76;78.60;99783.09;4916914;28;20055;-57
2023/04/26 02:59:56;;;;;;;22.92;8.30;;;;;;;7.72;76.78;99780.56;4917656;28;20048;-58
2023/04/26 03:02:26;;;;;;;21.60;9.50;;;;;;;7.67;76.48;99780.59;4917953;28;20432;-59
2023/04/26 03:04:57;;;;;;;22.88;9.20;;;;;;;7.69;76.29;99776.25;4917579;28;20055;-58
2023/04/26 03:07:28;;;;;;;20.40;9.68;;;;;;;7.74;77.66;99773.59;4918748;28;20039;-58
2023/04/26 03:10:00;;;;;;;17.25;9.10;;;;;;;7.80;76.98;99762.25;4913528;28;20053;-59
2023/04/26 03:12:31;;;;;;;22.60;9.30;;;;;;;7.81;76.69;99763.97;4913332;28;20048;-60
2023/04/26 03:15:02;;;;;;;19.90;8.68;;;;;;;7.87;76.74;99756.09;4913299;28;20147;-60
2023/04/26 03:17:33;;;;;;;24.02;9.25;;;;;;;7.75;76.82;99747.56;4926242;28;20056;-60
2023/04/26 03:20:04;;;;;;;17.77;8.98;;;;;;;7.51;76.70;99750.47;4917478;28;20546;-58
2023/04/26 03:22:36;;;;;;;18.05;9.02;;;;;;;7.50;77.87;99740.94;4916871;28;20048;-60
2023/04/26 03:25:08;;;;;;;23.55;8.80;;;;;;;7.50;78.57;99734.00;4916288;28;20075;-60
2023/04/26 03:27:39;;;;;;;16.10;7.70;;;;;;;7.62;78.83;99738.19;4907820;28;20044;-59
2023/04/26 03:30:10;;;;;;;18.25;7.95;;;;;;;7.72;79.17;99720.75;4938628;28;20118;-60
2023/04/26 03:32:41;;;;;;;19.30;7.43;;;;;;;7.75;78.75;99713.75;4931368;28;20055;-62
2023/04/26 03:35:11;;;;;;;19.15;9.25;;;;;;;7.69;77.39;99719.03;4914002;28;20063;-62
2023/04/26 03:37:42;;;;;;;18.85;10.32;;;;;;;7.49;78.05;99711.50;4929273;28;20055;-61
2023/04/26 03:40:15;;;;;;;15.98;8.15;;;;;;;7.52;78.67;99700.19;4935604;28;20362;-61
2023/04/26 03:42:46;;;;;;;16.50;8.60;;;;;;;7.52;78.79;99689.81;4934439;28;20079;-61
2023/04/26 03:45:16;;;;;;;16.23;7.65;;;;;;;7.55;77.88;99692.34;4934573;28;20051;-60
2023/04/26 03:47:47;;;;;;;17.30;8.27;;;;;;;7.54;78.00;99690.66;4935001;28;20136;-59
2023/04/26 03:50:18;;;;;;;19.85;9.05;;;;;;;7.61;78.82;99689.66;4916054;28;20128;-59
2023/04/26 03:52:49;;;;;;;16.73;9.30;;;;;;;7.57;78.92;99690.59;4911752;28;20474;-59
2023/04/26 03:55:21;;;;;;;18.30;9.23;;;;;;;7.60;79.63;99677.56;4927998;28;20212;-59
2023/04/26 03:57:52;;;;;;;14.93;8.63;;;;;;;7.81;80.20;99665.13;4935493;28;20044;-59
2023/04/26 04:00:23;;;;;;;16.60;8.75;;;;;;;7.82;79.08;99662.50;4935115;28;20051;-60
2023/04/26 04:02:53;;;;;;;11.38;6.93;;;;;;;7.83;78.73;99652.97;4935343;28;20040;-60
2023/04/26 04:05:24;;;;;;;16.30;7.85;;;;;;;7.84;78.98;99659.88;4934996;28;20139;-59
2023/04/26 04:07:55;;;;;;;12.80;8.10;;;;;;;7.87;79.42;99644.25;4916216;28;20048;-58
2023/04/26 04:10:27;;;;;;;11.95;7.03;;;;;;;7.78;79.75;99601.88;4927341;28;20051;-59
2023/04/26 04:12:58;;;;;;;11.13;6.50;;;;;;;8.05;80.01;99630.94;4933657;28;20058;-61
2023/04/26 04:15:28;;;;;;;16.85;7.95;;;;;;;8.06;79.86;99624.84;4930589;28;20265;-59
2023/04/26 04:17:59;;;;;;;13.73;7.88;;;;;;;8.15;79.49;99619.47;4940183;28;20816;-60
2023/04/26 04:20:32;;;;;;;15.95;7.68;;;;;;;8.23;79.59;99621.09;4937915;28;20061;-60
2023/04/26 04:23:05;;;;;;;11.05;6.93;;;;;;;8.26;79.43;99626.25;4934162;28;20047;-59
2023/04/26 04:25:37;;;;;;;11.98;6.40;;;;;;;8.14;77.96;99616.94;4919248;28;20056;-60
2023/04/26 04:28:08;;;;;;;12.35;5.93;;;;;;;8.12;78.82;99598.72;4924038;28;20178;-59
2023/04/26 04:30:38;;;;;;;9.50;5.85;;;;;;;8.30;78.78;99596.69;4924776;28;20053;-58
2023/04/26 04:33:09;;;;;;;9.27;5.28;;;;;;;8.30;78.49;99591.47;4921065;28;20220;-60
2023/04/26 04:35:41;;;;;;;9.60;5.72;;;;;;;8.29;78.62;99595.00;4939262;28;20214;-60
2023/04/26 04:38:12;;;;;;;10.82;5.43;;;;;;;8.13;78.35;99583.97;4934683;28;20056;-59
2023/04/26 04:40:44;;;;;;;11.55;5.70;;;;;;;8.08;78.26;99586.63;4934683;28;20047;-58
2023/04/26 04:43:14;;;;;;;9.75;6.07;;;;;;;8.09;78.97;99583.16;4929286;28;20116;-59
2023/04/26 04:45:45;;;;;;;9.40;5.22;;;;;;;8.09;78.56;99577.97;4918724;28;20048;-61
2023/04/26 04:48:15;;;;;;;9.70;6.20;;;;;;;8.19;78.26;99576.91;4932358;28;20098;-59
2023/04/26 04:50:46;;;;;;;9.95;5.28;;;;;;;8.34;77.76;99567.13;4916880;28;20117;-58
2023/04/26 04:53:16;;;;;;;9.07;5.22;;;;;;;8.45;77.35;99575.63;4910746;28;20059;-59
2023/04/26 04:55:49;;;;;;;10.30;6.10;;;;;;;8.30;76.56;99571.50;4937656;28;21002;-59
2023/04/26 04:58:21;;;;;;;8.43;5.30;;;;;;;8.23;76.46;99564.69;4914742;28;20965;-59
2023/04/26 05:00:53;;;;;;;8.27;5.20;;;;;;;8.10;76.22;99561.47;4924622;28;20083;-60
2023/04/26 05:03:23;;;;;;;11.48;5.55;;;;;;;7.97;76.39;99559.97;4930937;28;20406;-59
2023/04/26 05:05:54;;;;;;;9.68;5.30;;;;;;;7.93;76.84;99550.47;4935824;27;20622;-58
2023/04/26 05:08:24;;;;;;;8.50;5.80;;;;;;;7.90;76.66;99553.16;4935294;28;20058;-59
2023/04/26 05:10:56;;;;;;;10.43;6.38;;;;;;;7.85;77.01;99552.38;4920012;28;20517;-59
2023/04/26 05:13:27;;;;;;;11.43;6.10;;;;;;;7.72;77.28;99552.56;4929334;28;20047;-59
2023/04/26 05:15:57;;;;;;;10.40;5.88;;;;;;;7.32;76.82;99547.97;4934413;28;20052;-59
2023/04/26 05:18:28;;;;;;;10.15;5.25;;;;;;;7.12;78.08;99544.81;4935491;28;22201;-59
2023/04/26 05:20:59;;;;;;;7.13;5.38;;;;;;;7.18;79.52;99531.72;4931094;28;20060;-59
2023/04/26 05:23:29;;;;;;;9.02;5.32;;;;;;;7.27;79.30;99534.19;4917841;28;20061;-60
2023/04/26 05:26:05;;;;;;;8.80;5.32;;;;;;;7.27;79.25;99539.38;4931038;28;20483;-59
2023/04/26 05:28:35;;;;;;;8.40;5.07;;;;;;;7.33;79.65;99538.44;4945428;28;20073;-60
2023/04/26 05:31:06;;;;;;;9.88;5.25;;;;;;;7.34;79.10;99530.63;4944251;28;20485;-60
2023/04/26 05:33:39;;;;;;;9.10;5.85;;;;;;;7.34;78.78;99525.44;4937941;28;20125;-60
2023/04/26 05:36:10;;;;;;;9.18;6.00;;;;;;;7.20;78.89;99527.38;4945583;28;20474;-60
2023/04/26 05:38:41;;;;;;;9.75;6.15;;;;;;;7.32;79.67;99516.78;4945666;28;20044;-60
2023/04/26 05:41:13;;;;;;;11.55;5.70;;;;;;;7.33;79.89;99510.69;4944926;28;20574;-58
2023/04/26 05:43:43;;;;;;;9.20;6.50;;;;;;;7.37;80.54;99508.06;4930518;28;20078;-59
2023/04/26 05:46:14;;;;;;;10.30;5.93;;;;;;;7.34;79.84;99498.59;4930249;28;20121;-60
2023/04/26 05:48:45;;;;;;;10.30;5.82;;;;;;;7.31;80.06;99496.91;4930195;28;20482;-60
2023/04/26 05:51:15;;;;;;;9.02;5.60;;;;;;;7.38;79.50;99491.59;4930208;28;20081;-59
2023/04/26 05:53:46;;;;;;;6.57;4.85;;;;;;;7.37;79.73;99489.88;4929129;28;20422;-60
2023/04/26 05:56:18;;;;;;;11.13;5.60;;;;;;;7.46;79.72;99493.19;4944224;28;20047;-59
2023/04/26 05:58:49;;;;;;;7.88;5.57;;;;;;;7.48;79.30;99487.94;4941733;28;20044;-59
2023/04/26 06:01:20;;;;;;;8.20;5.10;;;;;;;7.47;79.52;99488.84;4945059;28;20063;-60
2023/04/26 06:03:50;;;;;;;8.65;5.47;;;;;;;7.37;79.24;99482.09;4945123;28;20063;-60
2023/04/26 06:06:25;;;;;;;8.88;5.10;;;;;;;7.30;78.83;99476.13;4941968;28;20047;-60
2023/04/26 06:08:56;;;;;;;6.90;5.38;;;;;;;7.21;78.50;99477.09;4929260;28;20146;-60
2023/04/26 06:11:28;;;;;;;8.45;5.78;;;;;;;7.07;78.57;99458.28;4928096;28;20054;-60
2023/04/26 06:13:58;;;;;;;8.50;5.90;;;;;;;7.13;78.76;99473.78;4941394;28;20512;-61
2023/04/26 06:16:29;;;;;;;8.63;5.65;;;;;;;7.07;79.22;99463.47;4949024;28;20526;-60
2023/04/26 06:19:00;;;;;;;8.10;5.97;;;;;;;6.91;79.35;99468.91;4945070;28;21130;-60
2023/04/26 06:21:30;;;;;;;10.48;6.63;;;;;;;6.68;80.20;99469.19;4939248;28;20108;-60
2023/04/26 06:24:01;;;;;;;10.70;6.35;;;;;;;6.65;80.76;99465.78;4936939;28;20056;-60
2023/04/26 06:26:33;;;;;;;9.88;6.03;;;;;;;6.62;81.34;99458.91;4919608;28;20052;-59
2023/04/26 06:29:04;;;;;;;13.07;6.70;;;;;;;6.74;81.80;99465.69;4913605;28;20071;-60
2023/04/26 06:31:34;;;;;;;10.48;6.10;;;;;;;6.76;81.42;99458.72;4913614;28;20159;-62
2023/04/26 06:34:05;;;;;;;11.30;5.85;;;;;;;6.69;81.44;99462.28;4915369;28;20133;-62
2023/04/26 06:36:37;;;;;;;9.52;6.68;;;;;;;6.67;82.14;99454.50;4916506;28;20143;-59
2023/04/26 06:39:07;;;;;;;12.60;6.38;;;;;;;6.64;82.34;99458.88;4913713;28;20722;-58
2023/04/26 06:41:39;;;;;;;11.20;6.70;;;;;;;6.53;82.92;99455.56;4913441;28;20466;-59
2023/04/26 06:44:10;;;;;;;9.68;6.30;;;;;;;6.49;83.62;99449.56;4907326;28;20515;-59
2023/04/26 06:46:40;;;;;;;10.23;6.13;;;;;;;6.32;83.52;99461.91;4915384;28;20053;-60
2023/04/26 06:49:11;;;;;;;12.55;6.60;;;;;;;6.29;84.38;99456.72;4913382;28;20099;-59
2023/04/26 06:51:42;;;;;;;12.18;6.78;;;;;;;6.25;84.54;99450.72;4915665;28;20086;-60
2023/04/26 06:54:13;;;;;;;11.00;6.70;;;;;;;6.28;85.54;99455.88;4915127;28;21068;-60
2023/04/26 06:56:45;;;;;;;13.07;6.95;;;;;;;6.34;85.94;99442.84;4916039;28;20815;-59
2023/04/26 06:59:16;;;;;;;10.75;6.25;;;;;;;6.32;85.95;99447.19;4914776;28;20062;-59
2023/04/26 07:01:46;;;;;;;7.47;6.10;;;;;;;6.29;86.42;99443.75;4915492;28;20106;-58
2023/04/26 07:04:19;;;;;;;10.95;6.72;;;;;;;6.11;86.40;99426.69;4915719;28;20048;-60
2023/04/26 07:06:50;;;;;;;8.63;5.68;;;;;;;6.21;87.44;99438.66;4905699;28;20073;-61
2023/04/26 07:09:20;;;;;;;8.05;5.72;;;;;;;6.15;87.12;99423.19;4912709;28;20505;-59
2023/04/26 07:11:52;;;;;;;9.15;5.57;;;;;;;6.09;87.00;99429.31;4915909;28;20051;-60
2023/04/26 07:14:23;;;;;;;10.25;5.10;;;;;;;6.00;87.77;99429.41;4915515;28;20053;-61
2023/04/26 07:16:54;;;;;;;9.13;6.30;;;;;;;6.08;88.67;99431.91;4915370;28;20414;-59
2023/04/26 07:19:24;;;;;;;8.05;5.80;;;;;;;6.09;88.83;99428.41;4912618;28;20079;-61
2023/04/26 07:21:55;;;;;;;7.70;6.07;;;;;;;6.05;89.19;99423.28;4915131;28;20063;-61
2023/04/26 07:24:25;;;;;;;8.45;5.90;;;;;;;6.04;89.40;99425.88;4926780;28;20058;-61
2023/04/26 07:26:57;;;;;;;8.55;5.63;;;;;;;5.99;88.76;99415.59;4943034;28;20104;-58
2023/04/26 07:29:28;;;;;;;8.13;5.88;;;;;;;5.99;88.68;99419.88;4926370;28;20071;-61
2023/04/26 07:31:59;;;;;;;7.30;5.35;;;;;;;5.88;89.40;99419.97;4934970;28;20048;-61
2023/04/26 07:34:29;;;;;;;10.82;5.70;;;;;;;5.83;89.67;99419.16;4930779;28;20805;-61
2023/04/26 07:37:00;;;;;;;10.00;7.03;;;;;;;5.91;90.35;99414.75;4928307;28;20099;-60
2023/04/26 07:39:30;;;;;;;9.95;6.00;;;;;;;5.93;90.13;99418.19;4927721;28;20048;-60
2023/04/26 07:42:03;;;;;;;8.10;5.70;;;;;;;5.86;90.17;99416.53;4927911;28;20060;-61
2023/04/26 07:44:33;;;;;;;8.45;5.68;;;;;;;5.79;90.91;99414.88;4927887;28;20655;-61
2023/04/26 07:47:04;;;;;;;10.00;6.18;;;;;;;5.72;90.93;99410.66;4927284;28;20048;-61
2023/04/26 07:49:34;;;;;;;9.65;6.15;;;;;;;5.68;91.20;99406.38;4931662;28;21105;-61
2023/04/26 07:52:05;;;;;;;7.70;5.72;;;;;;;5.73;92.25;99409.78;4926105;28;20101;-61
2023/04/26 07:54:35;;;;;;;11.35;6.10;;;;;;;5.58;91.75;99401.28;4928806;28;20706;-61
2023/04/26 07:57:07;;;;;;;8.07;6.03;;;;;;;5.42;92.24;99384.19;4923783;28;20131;-61
2023/04/26 07:59:38;;;;;;;9.40;6.07;;;;;;;5.58;92.52;99406.47;4927119;28;20049;-61
2023/04/26 08:02:08;;;;;;;9.40;5.68;;;;;;;5.51;92.77;99399.59;4926617;28;20498;-61
2023/04/26 08:04:39;;;;;;;12.93;6.18;;;;;;;5.56;93.04;99403.03;4932647;28;20060;-60
2023/04/26 08:07:09;;;;;;;10.57;6.45;;;;;;;5.60;93.56;99396.94;4931112;28;20259;-61
2023/04/26 08:09:40;;;;;;;8.00;5.40;;;;;;;5.57;93.00;99399.56;4928719;28;20135;-60
2023/04/26 08:12:13;;;;;;;7.10;5.40;;;;;;;5.43;93.76;99369.47;4928337;28;20052;-59
2023/04/26 08:14:45;;;;;;;10.70;5.68;;;;;;;5.67;93.49;99399.47;4925109;28;20044;-61
2023/04/26 08:17:15;;;;;;;12.20;5.47;;;;;;;5.72;93.64;99401.16;4922175;28;20048;-61
2023/04/26 08:19:46;;;;;;;8.32;6.22;;;;;;;5.77;93.94;99403.69;4928798;28;20438;-61
2023/04/26 08:22:17;;;;;;;8.63;5.93;;;;;;;5.65;93.15;99385.69;4929366;28;20109;-61
2023/04/26 08:24:49;;;;;;;7.97;5.78;;;;;;;5.71;93.54;99396.81;4919461;28;20811;-61
2023/04/26 08:27:22;;;;;;;11.45;5.95;;;;;;;5.71;93.56;99390.78;4917420;28;20067;-59
2023/04/26 08:29:52;;;;;;;8.15;5.63;;;;;;;5.71;93.58;99401.16;4925937;28;20105;-60
2023/04/26 08:32:23;;;;;;;9.30;5.68;;;;;;;5.54;93.88;99365.03;4923649;28;20040;-59
2023/04/26 08:34:54;;;;;;;12.82;5.75;;;;;;;5.69;93.77;99388.22;4926448;28;20105;-59
2023/04/26 08:37:24;;;;;;;8.45;5.93;;;;;;;5.62;93.80;99387.41;4925070;28;20428;-58
2023/04/26 08:40:00;;;;;;;10.70;6.53;;;;;;;5.63;93.92;99394.31;4923603;27;20054;-58
2023/04/26 08:42:33;;;;;;;9.63;5.93;;;;;;;5.67;94.21;99394.31;4913604;28;20480;-59
2023/04/26 08:45:10;;;;;;;12.07;6.38;;;;;;;5.69;94.46;99392.53;4925503;28;20064;-58
2023/04/26 08:47:45;;;;;;;9.02;6.22;;;;;;;5.53;94.38;99382.31;4909287;28;20060;-59
2023/04/26 08:50:17;;;;;;;11.10;5.97;;;;;;;5.59;94.18;99397.81;4924311;28;20113;-58
2023/04/26 08:52:50;;;;;;;9.55;6.43;;;;;;;5.46;94.67;99375.47;4924496;28;20047;-60
2023/04/26 08:55:21;;;;;;;9.57;6.78;;;;;;;5.51;94.98;99389.25;4903341;28;20052;-58
2023/04/26 08:57:53;;;;;;;8.63;6.50;;;;;;;5.47;94.93;99377.22;4915495;28;20048;-59
2023/04/26 09:00:39;;;;;;;9.80;6.65;;;;;;;5.48;95.39;99389.28;4917415;28;20123;-58
2023/04/26 09:03:12;;;;;;;8.68;6.35;;;;;;;5.43;95.43;99385.88;4909525;28;20587;-58
2023/04/26 09:05:44;;;;;;;10.95;6.70;;;;;;;5.40;95.83;99391.09;4919358;28;20491;-62
2023/04/26 09:08:20;;;;;;;8.65;6.95;;;;;;;5.31;96.40;99362.69;4902546;28;20472;-58
2023/04/26 09:10:51;;;;;;;11.25;7.28;;;;;;;5.43;96.51;99385.88;4913202;28;20056;-60
2023/04/26 09:13:31;;;;;;;13.05;7.07;;;;;;;5.46;96.70;99385.84;4926579;28;20058;-58
2023/04/26 09:16:04;;;;;;;10.55;7.50;;;;;;;5.45;97.22;99384.13;4914333;28;20134;-59
2023/04/26 09:18:35;;;;;;;12.65;7.20;;;;;;;5.53;97.52;99381.47;4919198;28;20048;-60
2023/04/26 09:21:12;;;;;;;9.80;6.72;;;;;;;5.30;97.66;99348.03;4899935;28;20147;-59
2023/04/26 09:23:58;;;;;;;10.95;6.47;;;;;;;5.45;97.80;99373.78;4904707;28;20059;-59
2023/04/26 09:26:32;;;;;;;10.40;6.82;;;;;;;5.49;98.28;99390.13;4928427;28;20064;-58
2023/04/26 09:29:19;;;;;;;9.15;6.75;;;;;;;5.47;98.39;99387.59;4941674;28;20047;-58
2023/04/26 09:31:51;;;;;;;12.73;7.28;;;;;;;5.48;98.48;99384.09;4931406;28;20048;-59
2023/04/26 09:34:23;;;;;;;9.88;7.53;;;;;;;5.47;98.44;99387.59;4944769;28;20177;-60
2023/04/26 09:36:55;;;;;;;10.45;7.90;;;;;;;5.47;98.63;99386.72;4944403;28;20075;-59
2023/04/26 09:39:36;;;;;;;12.65;7.78;;;;;;;5.41;98.69;99377.25;4943552;28;20048;-58
2023/04/26 09:42:08;;;;;;;11.02;7.57;;;;;;;5.42;99.09;99384.19;4932162;28;20079;-59
2023/04/26 09:44:43;;;;;;;9.27;7.05;;;;;;;5.42;99.68;99384.19;4942100;28;20052;-59
2023/04/26 09:47:16;;;;;;;12.23;7.80;;;;;;;5.37;99.50;99380.78;4930513;28;20083;-59
2023/04/26 09:49:50;;;;;;;10.27;7.43;;;;;;;5.36;99.60;99379.03;4930499;28;20443;-58
2023/04/26 09:52:25;;;;;;;12.85;6.72;;;;;;;5.30;99.33;99379.09;4931591;28;20143;-59
2023/04/26 09:54:57;;;;;;;14.30;9.77;;;;;;;5.27;99.71;99379.16;4930053;28;20056;-58
2023/04/26 09:57:28;;;;;;;11.25;8.85;;;;;;;5.18;99.34;99386.09;4941610;28;20449;-60
2023/04/26 10:00:11;;;;;;;8.82;6.97;;;;;;;5.22;100.00;99381.78;4924531;28;20061;-58
2023/04/26 10:02:43;;;;;;;11.00;5.70;;;;;;;5.26;99.99;99383.44;4918992;28;20047;-56
2023/04/26 10:05:15;;;;;;;6.82;5.18;;;;;;;5.26;99.29;99378.25;4929977;28;20052;-58
2023/04/26 10:07:47;;;;;;;6.72;5.05;;;;;;;5.27;99.35;99380.00;4929891;28;20150;-58
2023/04/26 10:10:20;;;;;;;8.70;5.82;;;;;;;5.15;99.35;99365.41;4929292;28;20121;-59
2023/04/26 10:12:52;;;;;;;9.15;5.70;;;;;;;5.10;98.98;99372.38;4920158;28;20059;-59
2023/04/26 10:15:26;;;;;;;9.18;4.95;;;;;;;5.04;99.43;99374.13;4930674;28;20048;-59
2023/04/26 10:17:58;;;;;;;8.90;5.40;;;;;;;5.04;99.40;99376.72;4939145;28;20110;-59
2023/04/26 10:20:33;;;;;;;7.28;5.40;;;;;;;5.03;99.39;99381.06;4917797;28;20062;-58
2023/04/26 10:23:11;;;;;;;8.07;5.35;;;;;;;4.99;99.56;99379.34;4929320;28;20241;-60
2023/04/26 10:25:44;;;;;;;7.97;5.27;;;;;;;5.01;100.00;99377.59;4910392;28;20066;-60
2023/04/26 10:28:17;;;;;;;8.75;4.90;;;;;;;5.03;100.00;99377.59;4919727;28;20286;-60
2023/04/26 10:31:00;;;;;;;9.13;5.07;;;;;;;4.98;99.48;99388.00;4916546;28;20045;-60
2023/04/26 10:33:37;;;;;;;7.35;4.60;;;;;;;4.93;99.07;99389.75;4905410;28;20126;-58
2023/04/26 10:36:14;;;;;;;6.55;5.05;;;;;;;4.63;99.65;99345.13;4913312;28;20459;-59
2023/04/26 10:39:24;;;;;;;6.82;5.22;;;;;;;4.90;99.79;99389.78;4917625;28;20040;-58
2023/04/26 10:42:23;;;;;;;6.18;4.70;;;;;;;4.96;99.65;99385.41;4903918;28;21212;-61
2023/04/26 10:44:57;;;;;;;6.47;4.90;;;;;;;4.78;99.78;99353.66;4904131;28;20052;-59
2023/04/26 10:47:36;;;;;;;6.78;5.10;;;;;;;4.99;99.70;99379.34;4892247;28;20593;-59
2023/04/26 10:50:10;;;;;;;7.10;4.35;;;;;;;4.92;99.44;99372.53;4902216;28;20059;-59
2023/04/26 10:56:01;;;;;;;6.97;4.95;;;;;;;5.04;99.74;99393.16;4895261;28;20170;-60
2023/04/26 10:58:34;;;;;;;11.70;7.82;;;;;;;4.99;99.56;99389.69;4915390;28;20054;-60
2023/04/26 11:01:10;;;;;;;16.90;9.93;;;;;;;4.92;99.41;99382.88;4914470;28;20137;-60
2023/04/26 11:03:45;;;;;;;11.00;8.07;;;;;;;4.99;99.54;99394.88;4903964;28;20058;-61
2023/04/26 11:06:19;;;;;;;6.93;5.05;;;;;;;4.96;99.45;99389.72;4916337;28;20508;-59
2023/04/26 11:08:51;;;;;;;6.07;5.05;;;;;;;4.91;99.26;99394.09;4906178;28;20499;-60
2023/04/26 11:11:31;;;;;;;9.27;7.13;;;;;;;4.83;99.20;99393.28;4914407;28;20064;-60
2023/04/26 11:14:04;;;;;;;10.38;6.65;;;;;;;4.83;99.65;99398.47;4905773;28;20054;-58
2023/04/26 11:16:36;;;;;;;6.93;4.78;;;;;;;4.76;99.07;99401.09;4913068;28;20142;-58
2023/04/26 11:19:11;;;;;;;6.53;4.03;;;;;;;4.70;99.40;99403.72;4913918;28;20048;-60
2023/04/26 11:21:43;;;;;;;14.82;10.90;;;;;;;4.67;99.21;99401.16;4905059;28;20076;-59
2023/04/26 11:24:17;;;;;;;8.18;6.28;;;;;;;4.67;99.48;99408.94;4915913;28;20868;-59
2023/04/26 11:26:53;;;;;;;6.40;5.05;;;;;;;4.61;99.14;99403.78;4922640;28;23142;-59
2023/04/26 11:29:25;;;;;;;12.05;7.75;;;;;;;4.59;99.21;99409.81;4906901;28;20379;-59
2023/04/26 11:31:58;;;;;;;9.93;8.27;;;;;;;4.51;99.04;99402.09;4915074;28;20060;-60
2023/04/26 11:34:37;;;;;;;14.00;10.70;;;;;;;4.50;99.63;99400.41;4910427;28;20550;-59
2023/04/26 11:37:09;;;;;;;18.17;13.88;;;;;;;4.50;99.72;99401.25;4926425;28;20130;-59
2023/04/26 11:39:40;;;;;;;11.90;10.10;;;;;;;4.51;99.65;99399.53;4909407;28;20556;-59
2023/04/26 11:42:12;;;;;;;12.75;10.38;;;;;;;4.51;99.59;99407.28;4916294;28;20108;-59
2023/04/26 11:44:44;;;;;;;13.60;12.00;;;;;;;4.51;100.00;99402.09;4922262;28;20165;-59
2023/04/26 11:47:17;;;;;;;14.02;9.55;;;;;;;4.53;99.97;99392.63;4927900;28;20072;-60
2023/04/26 11:49:51;;;;;;;8.35;6.53;;;;;;;4.45;99.33;99391.81;4926902;28;20082;-60
2023/04/26 11:52:22;;;;;;;24.27;17.27;;;;;;;4.39;99.29;99391.81;4912985;28;20079;-59
2023/04/26 11:55:05;;;;;;;16.30;12.88;;;;;;;4.39;99.67;99391.81;4920550;28;20105;-59
2023/04/26 11:57:36;;;;;;;7.40;5.53;;;;;;;4.40;100.00;99388.38;4910186;28;20466;-60
2023/04/26 12:00:16;;;;;;;14.77;8.38;;;;;;;4.40;100.00;99393.56;4923207;28;20063;-59
2023/04/26 12:02:48;;;;;;;19.52;10.38;;;;;;;4.37;100.00;99393.56;4912458;28;20044;-59